sensor_id;sensor_type;location;lat;lon;timestamp;temperature;humidity
5154;DHT22;2595;53.584;10.084;2022-09-09T00:02:01;16.20;99.90
5154;DHT22;2595;53.584;10.084;2022-09-09T00:04:37;16.20;99.90
5154;DHT22;2595;53.584;10.084;2022-09-09T00:07:30;16.30;99.90
5154;DHT22;2595;53.584;10.084;2022-09-09T00:12:46;16.30;99.90
5154;DHT22;2595;53.584;10.084;2022-09-09T00:15:29;16.30;99.90
5154;DHT22;2595;53.584;10.084;2022-09-09T00:18:17;16.30;99.90
5154;DHT22;2595;53.584;10.084;2022-09-09T00:21:07;16.30;99.90
5154;DHT22;2595;53.584;10.084;2022-09-09T00:23:39;16.30;99.90
5154;DHT22;2595;53.584;10.084;2022-09-09T00:26:35;16.30;99.90
5154;DHT22;2595;53.584;10.084;2022-09-09T00:31:44;16.30;99.90
5154;DHT22;2595;53.584;10.084;2022-09-09T00:34:20;16.30;99.90
5154;DHT22;2595;53.584;10.084;2022-09-09T00:36:49;16.30;99.90
5154;DHT22;2595;53.584;10.084;2022-09-09T00:39:36;16.30;99.90
5154;DHT22;2595;53.584;10.084;2022-09-09T00:47:53;16.20;99.90
5154;DHT22;2595;53.584;10.084;2022-09-09T00:53:11;16.20;99.90
5154;DHT22;2595;53.584;10.084;2022-09-09T00:56:41;16.20;99.90
5154;DHT22;2595;53.584;10.084;2022-09-09T00:58:34;16.20;99.90
5154;DHT22;2595;53.584;10.084;2022-09-09T01:01:10;16.20;99.90
5154;DHT22;2595;53.584;10.084;2022-09-09T01:03:56;16.20;99.90
5154;DHT22;2595;53.584;10.084;2022-09-09T01:11:45;16.20;99.90
5154;DHT22;2595;53.584;10.084;2022-09-09T01:17:24;16.10;99.90
5154;DHT22;2595;53.584;10.084;2022-09-09T01:28:52;16.10;99.90
5154;DHT22;2595;53.584;10.084;2022-09-09T01:31:21;16.10;99.90
5154;DHT22;2595;53.584;10.084;2022-09-09T01:33:48;16.10;99.90
5154;DHT22;2595;53.584;10.084;2022-09-09T01:36:37;16.00;99.90
5154;DHT22;2595;53.584;10.084;2022-09-09T01:38:59;16.00;99.90
5154;DHT22;2595;53.584;10.084;2022-09-09T01:41:25;16.00;99.90
5154;DHT22;2595;53.584;10.084;2022-09-09T01:43:52;16.00;99.90
5154;DHT22;2595;53.584;10.084;2022-09-09T01:46:21;16.00;99.90
5154;DHT22;2595;53.584;10.084;2022-09-09T01:48:47;16.00;99.90
5154;DHT22;2595;53.584;10.084;2022-09-09T01:51:13;16.00;99.90
5154;DHT22;2595;53.584;10.084;2022-09-09T01:53:41;16.00;99.90
5154;DHT22;2595;53.584;10.084;2022-09-09T01:56:40;16.00;99.90
5154;DHT22;2595;53.584;10.084;2022-09-09T02:06:57;15.90;99.90
5154;DHT22;2595;53.584;10.084;2022-09-09T02:09:24;15.90;99.90
5154;DHT22;2595;53.584;10.084;2022-09-09T02:12:02;15.80;99.90
5154;DHT22;2595;53.584;10.084;2022-09-09T02:14:36;15.90;99.90
5154;DHT22;2595;53.584;10.084;2022-09-09T02:17:13;15.80;99.90
5154;DHT22;2595;53.584;10.084;2022-09-09T02:19:44;15.80;99.90
5154;DHT22;2595;53.584;10.084;2022-09-09T02:22:12;15.80;99.90
5154;DHT22;2595;53.584;10.084;2022-09-09T02:24:40;15.70;99.90
5154;DHT22;2595;53.584;10.084;2022-09-09T02:27:08;15.80;99.90
5154;DHT22;2595;53.584;10.084;2022-09-09T02:29:37;15.70;99.90
5154;DHT22;2595;53.584;10.084;2022-09-09T02:32:06;15.70;99.90
5154;DHT22;2595;53.584;10.084;2022-09-09T02:34:36;15.80;99.90
5154;DHT22;2595;53.584;10.084;2022-09-09T02:37:03;15.80;99.90
5154;DHT22;2595;53.584;10.084;2022-09-09T02:39:29;15.70;99.90
5154;DHT22;2595;53.584;10.084;2022-09-09T02:41:55;15.70;99.90
5154;DHT22;2595;53.584;10.084;2022-09-09T02:44:21;15.70;99.90
5154;DHT22;2595;53.584;10.084;2022-09-09T02:46:52;15.70;99.90
5154;DHT22;2595;53.584;10.084;2022-09-09T02:49:50;15.70;99.90
5154;DHT22;2595;53.584;10.084;2022-09-09T02:52:22;15.70;99.90
5154;DHT22;2595;53.584;10.084;2022-09-09T02:54:54;15.70;99.90
5154;DHT22;2595;53.584;10.084;2022-09-09T02:57:25;15.70;99.90
5154;DHT22;2595;53.584;10.084;2022-09-09T02:59:53;15.70;99.90
5154;DHT22;2595;53.584;10.084;2022-09-09T03:02:20;15.70;99.90
5154;DHT22;2595;53.584;10.084;2022-09-09T03:04:45;15.60;99.90
5154;DHT22;2595;53.584;10.084;2022-09-09T03:07:16;15.60;99.90
5154;DHT22;2595;53.584;10.084;2022-09-09T03:09:42;15.70;99.90
5154;DHT22;2595;53.584;10.084;2022-09-09T03:12:08;15.70;99.90
5154;DHT22;2595;53.584;10.084;2022-09-09T03:14:36;15.70;99.90
5154;DHT22;2595;53.584;10.084;2022-09-09T03:17:04;15.60;99.90
5154;DHT22;2595;53.584;10.084;2022-09-09T03:19:30;15.60;99.90
5154;DHT22;2595;53.584;10.084;2022-09-09T03:21:56;15.70;99.90
5154;DHT22;2595;53.584;10.084;2022-09-09T03:24:21;15.70;99.90
5154;DHT22;2595;53.584;10.084;2022-09-09T03:26:48;15.70;99.90
5154;DHT22;2595;53.584;10.084;2022-09-09T03:29:13;15.60;99.90
5154;DHT22;2595;53.584;10.084;2022-09-09T03:31:40;15.60;99.90
5154;DHT22;2595;53.584;10.084;2022-09-09T03:34:06;15.70;99.90
5154;DHT22;2595;53.584;10.084;2022-09-09T03:36:32;15.60;99.90
5154;DHT22;2595;53.584;10.084;2022-09-09T03:38:58;15.60;99.90
5154;DHT22;2595;53.584;10.084;2022-09-09T03:41:25;15.60;99.90
5154;DHT22;2595;53.584;10.084;2022-09-09T03:43:51;15.60;99.90
5154;DHT22;2595;53.584;10.084;2022-09-09T03:46:18;15.60;99.90
5154;DHT22;2595;53.584;10.084;2022-09-09T03:48:43;15.60;99.90
5154;DHT22;2595;53.584;10.084;2022-09-09T03:51:09;15.60;99.90
5154;DHT22;2595;53.584;10.084;2022-09-09T03:53:36;15.60;99.90
5154;DHT22;2595;53.584;10.084;2022-09-09T03:56:04;15.60;99.90
5154;DHT22;2595;53.584;10.084;2022-09-09T03:58:35;15.60;99.90
5154;DHT22;2595;53.584;10.084;2022-09-09T04:01:07;15.60;99.90
5154;DHT22;2595;53.584;10.084;2022-09-09T04:03:34;15.60;99.90
5154;DHT22;2595;53.584;10.084;2022-09-09T04:06:01;15.60;99.90
5154;DHT22;2595;53.584;10.084;2022-09-09T04:08:29;15.60;99.90
5154;DHT22;2595;53.584;10.084;2022-09-09T04:10:57;15.60;99.90
5154;DHT22;2595;53.584;10.084;2022-09-09T04:13:23;15.50;99.90
5154;DHT22;2595;53.584;10.084;2022-09-09T04:15:53;15.50;99.90
5154;DHT22;2595;53.584;10.084;2022-09-09T04:18:20;15.50;99.90
5154;DHT22;2595;53.584;10.084;2022-09-09T04:20:50;15.50;99.90
5154;DHT22;2595;53.584;10.084;2022-09-09T04:23:17;15.50;99.90
5154;DHT22;2595;53.584;10.084;2022-09-09T04:25:50;15.50;99.90
5154;DHT22;2595;53.584;10.084;2022-09-09T04:28:17;15.50;99.90
5154;DHT22;2595;53.584;10.084;2022-09-09T04:30:44;15.50;99.90
5154;DHT22;2595;53.584;10.084;2022-09-09T04:33:10;15.40;99.90
5154;DHT22;2595;53.584;10.084;2022-09-09T04:35:36;15.40;99.90
5154;DHT22;2595;53.584;10.084;2022-09-09T04:38:03;15.30;99.90
5154;DHT22;2595;53.584;10.084;2022-09-09T04:40:29;15.30;99.90
5154;DHT22;2595;53.584;10.084;2022-09-09T04:42:58;15.30;99.90
5154;DHT22;2595;53.584;10.084;2022-09-09T04:45:23;15.30;99.90
5154;DHT22;2595;53.584;10.084;2022-09-09T04:47:49;15.30;99.90
5154;DHT22;2595;53.584;10.084;2022-09-09T04:50:15;15.30;99.90
5154;DHT22;2595;53.584;10.084;2022-09-09T04:52:41;15.30;99.90
5154;DHT22;2595;53.584;10.084;2022-09-09T04:55:07;15.30;99.90
5154;DHT22;2595;53.584;10.084;2022-09-09T04:57:34;15.30;99.90
5154;DHT22;2595;53.584;10.084;2022-09-09T04:59:59;15.30;99.90
5154;DHT22;2595;53.584;10.084;2022-09-09T05:02:26;15.30;99.90
5154;DHT22;2595;53.584;10.084;2022-09-09T05:04:51;15.30;99.90
5154;DHT22;2595;53.584;10.084;2022-09-09T05:07:17;15.30;99.90
5154;DHT22;2595;53.584;10.084;2022-09-09T05:09:42;15.30;99.90
5154;DHT22;2595;53.584;10.084;2022-09-09T05:12:08;15.30;99.90
5154;DHT22;2595;53.584;10.084;2022-09-09T05:14:34;15.30;99.90
5154;DHT22;2595;53.584;10.084;2022-09-09T05:17:01;15.30;99.90
5154;DHT22;2595;53.584;10.084;2022-09-09T05:19:27;15.30;99.90
5154;DHT22;2595;53.584;10.084;2022-09-09T05:21:52;15.30;99.90
5154;DHT22;2595;53.584;10.084;2022-09-09T05:24:18;15.30;99.90
5154;DHT22;2595;53.584;10.084;2022-09-09T05:26:44;15.30;99.90
5154;DHT22;2595;53.584;10.084;2022-09-09T05:29:09;15.30;99.90
5154;DHT22;2595;53.584;10.084;2022-09-09T05:31:35;15.30;99.90
5154;DHT22;2595;53.584;10.084;2022-09-09T05:34:00;15.30;99.90
5154;DHT22;2595;53.584;10.084;2022-09-09T05:36:26;15.30;99.90
5154;DHT22;2595;53.584;10.084;2022-09-09T05:38:52;15.40;99.90
5154;DHT22;2595;53.584;10.084;2022-09-09T05:41:19;15.40;99.90
5154;DHT22;2595;53.584;10.084;2022-09-09T05:43:46;15.40;99.90
5154;DHT22;2595;53.584;10.084;2022-09-09T05:46:14;15.40;99.90
5154;DHT22;2595;53.584;10.084;2022-09-09T05:48:41;15.40;99.90
5154;DHT22;2595;53.584;10.084;2022-09-09T05:51:12;15.40;99.90
5154;DHT22;2595;53.584;10.084;2022-09-09T05:53:41;15.40;99.90
5154;DHT22;2595;53.584;10.084;2022-09-09T05:56:12;15.40;99.90
5154;DHT22;2595;53.584;10.084;2022-09-09T05:58:40;15.50;99.90
5154;DHT22;2595;53.584;10.084;2022-09-09T06:01:07;15.50;99.90
5154;DHT22;2595;53.584;10.084;2022-09-09T06:03:34;15.50;99.90
5154;DHT22;2595;53.584;10.084;2022-09-09T06:06:02;15.50;99.90
5154;DHT22;2595;53.584;10.084;2022-09-09T06:08:31;15.50;99.90
5154;DHT22;2595;53.584;10.084;2022-09-09T06:11:02;15.50;99.90
5154;DHT22;2595;53.584;10.084;2022-09-09T06:13:29;15.50;99.90
5154;DHT22;2595;53.584;10.084;2022-09-09T06:15:54;15.50;99.90
5154;DHT22;2595;53.584;10.084;2022-09-09T06:18:20;15.60;99.90
5154;DHT22;2595;53.584;10.084;2022-09-09T06:21:00;15.60;99.90
5154;DHT22;2595;53.584;10.084;2022-09-09T06:23:27;15.60;99.90
5154;DHT22;2595;53.584;10.084;2022-09-09T06:26:04;15.60;99.90
5154;DHT22;2595;53.584;10.084;2022-09-09T06:28:34;15.60;99.90
5154;DHT22;2595;53.584;10.084;2022-09-09T06:31:02;15.60;99.90
5154;DHT22;2595;53.584;10.084;2022-09-09T06:33:31;15.70;99.90
5154;DHT22;2595;53.584;10.084;2022-09-09T06:35:57;15.70;99.90
5154;DHT22;2595;53.584;10.084;2022-09-09T06:38:23;15.70;99.90
5154;DHT22;2595;53.584;10.084;2022-09-09T06:40:56;15.70;99.90
5154;DHT22;2595;53.584;10.084;2022-09-09T06:43:24;15.70;99.90
5154;DHT22;2595;53.584;10.084;2022-09-09T06:45:58;15.70;99.90
5154;DHT22;2595;53.584;10.084;2022-09-09T06:48:24;15.70;99.90
5154;DHT22;2595;53.584;10.084;2022-09-09T06:51:01;15.70;99.90
5154;DHT22;2595;53.584;10.084;2022-09-09T06:53:28;15.70;99.90
5154;DHT22;2595;53.584;10.084;2022-09-09T06:55:53;15.70;99.90
5154;DHT22;2595;53.584;10.084;2022-09-09T06:58:20;15.80;99.90
5154;DHT22;2595;53.584;10.084;2022-09-09T07:00:47;15.80;99.90
5154;DHT22;2595;53.584;10.084;2022-09-09T07:03:13;15.80;99.90
5154;DHT22;2595;53.584;10.084;2022-09-09T07:05:39;15.80;99.90
5154;DHT22;2595;53.584;10.084;2022-09-09T07:08:04;15.80;99.90
5154;DHT22;2595;53.584;10.084;2022-09-09T07:10:31;15.80;99.90
5154;DHT22;2595;53.584;10.084;2022-09-09T07:12:56;15.90;99.90
5154;DHT22;2595;53.584;10.084;2022-09-09T07:15:22;15.90;99.90
5154;DHT22;2595;53.584;10.084;2022-09-09T07:17:48;15.90;99.90
5154;DHT22;2595;53.584;10.084;2022-09-09T07:20:14;15.90;99.90
5154;DHT22;2595;53.584;10.084;2022-09-09T07:22:40;15.90;99.90
5154;DHT22;2595;53.584;10.084;2022-09-09T07:25:07;15.90;99.90
5154;DHT22;2595;53.584;10.084;2022-09-09T07:27:32;15.90;99.90
5154;DHT22;2595;53.584;10.084;2022-09-09T07:29:58;16.00;99.90
5154;DHT22;2595;53.584;10.084;2022-09-09T07:32:24;16.00;99.90
5154;DHT22;2595;53.584;10.084;2022-09-09T07:34:51;16.00;99.90
5154;DHT22;2595;53.584;10.084;2022-09-09T07:37:17;16.00;99.90
5154;DHT22;2595;53.584;10.084;2022-09-09T07:39:43;16.10;99.90
5154;DHT22;2595;53.584;10.084;2022-09-09T07:42:09;16.10;99.90
5154;DHT22;2595;53.584;10.084;2022-09-09T07:44:37;16.10;99.90
5154;DHT22;2595;53.584;10.084;2022-09-09T07:47:05;16.10;99.90
5154;DHT22;2595;53.584;10.084;2022-09-09T07:49:30;16.20;99.90
5154;DHT22;2595;53.584;10.084;2022-09-09T07:51:58;16.20;99.90
5154;DHT22;2595;53.584;10.084;2022-09-09T07:54:24;16.20;99.90
5154;DHT22;2595;53.584;10.084;2022-09-09T07:56:50;16.20;99.90
5154;DHT22;2595;53.584;10.084;2022-09-09T07:59:16;16.30;99.90
5154;DHT22;2595;53.584;10.084;2022-09-09T08:01:50;16.30;99.90
5154;DHT22;2595;53.584;10.084;2022-09-09T08:04:19;16.40;99.90
5154;DHT22;2595;53.584;10.084;2022-09-09T08:06:48;16.40;99.90
5154;DHT22;2595;53.584;10.084;2022-09-09T08:09:15;16.40;99.90
5154;DHT22;2595;53.584;10.084;2022-09-09T08:11:41;16.40;99.90
5154;DHT22;2595;53.584;10.084;2022-09-09T08:14:08;16.50;99.90
5154;DHT22;2595;53.584;10.084;2022-09-09T08:16:36;16.50;99.90
5154;DHT22;2595;53.584;10.084;2022-09-09T08:19:03;16.50;99.90
5154;DHT22;2595;53.584;10.084;2022-09-09T08:21:31;16.50;99.90
5154;DHT22;2595;53.584;10.084;2022-09-09T08:23:58;16.60;99.90
5154;DHT22;2595;53.584;10.084;2022-09-09T08:26:26;16.60;99.90
5154;DHT22;2595;53.584;10.084;2022-09-09T08:28:54;16.60;99.90
5154;DHT22;2595;53.584;10.084;2022-09-09T08:31:23;16.60;99.90
5154;DHT22;2595;53.584;10.084;2022-09-09T08:33:49;16.60;99.90
5154;DHT22;2595;53.584;10.084;2022-09-09T08:36:21;16.60;99.90
5154;DHT22;2595;53.584;10.084;2022-09-09T08:38:52;16.60;99.90
5154;DHT22;2595;53.584;10.084;2022-09-09T08:47:12;16.70;99.90
5154;DHT22;2595;53.584;10.084;2022-09-09T08:50:02;16.80;99.90
5154;DHT22;2595;53.584;10.084;2022-09-09T08:53:04;16.80;99.90
5154;DHT22;2595;53.584;10.084;2022-09-09T08:58:23;16.80;99.90
5154;DHT22;2595;53.584;10.084;2022-09-09T09:11:23;17.00;99.90
5154;DHT22;2595;53.584;10.084;2022-09-09T09:13:59;17.00;99.90
5154;DHT22;2595;53.584;10.084;2022-09-09T09:19:13;17.10;99.90
5154;DHT22;2595;53.584;10.084;2022-09-09T09:21:43;17.20;99.90
5154;DHT22;2595;53.584;10.084;2022-09-09T09:24:25;17.20;99.90
5154;DHT22;2595;53.584;10.084;2022-09-09T09:26:52;17.30;99.90
5154;DHT22;2595;53.584;10.084;2022-09-09T09:29:19;17.30;99.90
5154;DHT22;2595;53.584;10.084;2022-09-09T09:31:57;17.30;99.90
5154;DHT22;2595;53.584;10.084;2022-09-09T09:34:26;17.40;99.90
5154;DHT22;2595;53.584;10.084;2022-09-09T09:36:59;17.40;99.90
5154;DHT22;2595;53.584;10.084;2022-09-09T09:39:31;17.50;99.90
5154;DHT22;2595;53.584;10.084;2022-09-09T09:42:13;17.50;99.90
5154;DHT22;2595;53.584;10.084;2022-09-09T09:44:40;17.60;99.90
5154;DHT22;2595;53.584;10.084;2022-09-09T09:47:24;17.60;99.90
5154;DHT22;2595;53.584;10.084;2022-09-09T09:49:58;17.60;99.90
5154;DHT22;2595;53.584;10.084;2022-09-09T09:52:26;17.70;99.90
5154;DHT22;2595;53.584;10.084;2022-09-09T09:54:54;17.80;99.90
5154;DHT22;2595;53.584;10.084;2022-09-09T09:57:29;17.90;99.90
5154;DHT22;2595;53.584;10.084;2022-09-09T10:02:39;18.00;99.90
5154;DHT22;2595;53.584;10.084;2022-09-09T10:05:23;18.00;99.90
5154;DHT22;2595;53.584;10.084;2022-09-09T10:08:20;18.10;99.90
5154;DHT22;2595;53.584;10.084;2022-09-09T10:11:25;18.10;99.90
5154;DHT22;2595;53.584;10.084;2022-09-09T10:19:17;18.20;99.90
5154;DHT22;2595;53.584;10.084;2022-09-09T10:29:51;18.40;99.90
5154;DHT22;2595;53.584;10.084;2022-09-09T10:35:29;18.90;99.90
5154;DHT22;2595;53.584;10.084;2022-09-09T10:48:36;19.60;99.90
5154;DHT22;2595;53.584;10.084;2022-09-09T10:51:13;19.60;99.90
5154;DHT22;2595;53.584;10.084;2022-09-09T10:56:29;19.80;99.90
5154;DHT22;2595;53.584;10.084;2022-09-09T10:59:16;19.70;99.90
5154;DHT22;2595;53.584;10.084;2022-09-09T11:02:01;19.70;99.90
5154;DHT22;2595;53.584;10.084;2022-09-09T11:04:32;19.70;99.90
5154;DHT22;2595;53.584;10.084;2022-09-09T11:07:05;19.70;99.90
5154;DHT22;2595;53.584;10.084;2022-09-09T11:09:35;19.60;99.90
5154;DHT22;2595;53.584;10.084;2022-09-09T11:12:02;19.50;99.90
5154;DHT22;2595;53.584;10.084;2022-09-09T11:17:10;19.40;99.90
5154;DHT22;2595;53.584;10.084;2022-09-09T11:19:41;19.40;99.90
5154;DHT22;2595;53.584;10.084;2022-09-09T11:24:56;19.50;99.90
5154;DHT22;2595;53.584;10.084;2022-09-09T11:33:36;19.60;99.90
5154;DHT22;2595;53.584;10.084;2022-09-09T11:41:53;19.70;99.90
5154;DHT22;2595;53.584;10.084;2022-09-09T11:44:29;19.70;99.90
5154;DHT22;2595;53.584;10.084;2022-09-09T11:46:55;19.70;99.90
5154;DHT22;2595;53.584;10.084;2022-09-09T11:49:39;19.70;99.90
5154;DHT22;2595;53.584;10.084;2022-09-09T11:52:43;19.70;99.90
5154;DHT22;2595;53.584;10.084;2022-09-09T11:55:24;19.70;99.90
5154;DHT22;2595;53.584;10.084;2022-09-09T11:58:04;19.70;99.90
5154;DHT22;2595;53.584;10.084;2022-09-09T12:00:31;19.70;99.90
5154;DHT22;2595;53.584;10.084;2022-09-09T12:02:58;19.80;99.90
5154;DHT22;2595;53.584;10.084;2022-09-09T12:05:39;19.80;99.90
5154;DHT22;2595;53.584;10.084;2022-09-09T12:08:06;19.90;99.90
5154;DHT22;2595;53.584;10.084;2022-09-09T12:10:40;19.90;99.90
5154;DHT22;2595;53.584;10.084;2022-09-09T12:13:21;20.00;99.90
5154;DHT22;2595;53.584;10.084;2022-09-09T12:15:50;20.00;99.90
5154;DHT22;2595;53.584;10.084;2022-09-09T12:18:31;19.90;99.90
5154;DHT22;2595;53.584;10.084;2022-09-09T12:21:21;20.00;99.90
5154;DHT22;2595;53.584;10.084;2022-09-09T12:24:03;19.90;99.90
5154;DHT22;2595;53.584;10.084;2022-09-09T12:26:43;19.90;99.90
5154;DHT22;2595;53.584;10.084;2022-09-09T12:32:15;19.80;99.90
5154;DHT22;2595;53.584;10.084;2022-09-09T12:34:54;19.80;99.90
5154;DHT22;2595;53.584;10.084;2022-09-09T12:37:31;19.70;99.90
5154;DHT22;2595;53.584;10.084;2022-09-09T12:39:59;19.70;99.90
5154;DHT22;2595;53.584;10.084;2022-09-09T12:42:27;19.80;99.90
5154;DHT22;2595;53.584;10.084;2022-09-09T12:45:02;19.90;99.90
5154;DHT22;2595;53.584;10.084;2022-09-09T12:50:00;20.10;99.90
5154;DHT22;2595;53.584;10.084;2022-09-09T12:52:32;20.10;99.90
5154;DHT22;2595;53.584;10.084;2022-09-09T12:55:01;20.10;99.90
5154;DHT22;2595;53.584;10.084;2022-09-09T12:57:35;20.00;99.90
5154;DHT22;2595;53.584;10.084;2022-09-09T13:00:16;20.00;99.90
5154;DHT22;2595;53.584;10.084;2022-09-09T13:02:47;20.00;99.90
5154;DHT22;2595;53.584;10.084;2022-09-09T13:05:37;19.90;99.90
5154;DHT22;2595;53.584;10.084;2022-09-09T13:08:10;19.90;99.90
5154;DHT22;2595;53.584;10.084;2022-09-09T13:13:20;19.80;99.90
5154;DHT22;2595;53.584;10.084;2022-09-09T13:15:54;19.70;99.90
5154;DHT22;2595;53.584;10.084;2022-09-09T13:18:27;19.70;99.90
5154;DHT22;2595;53.584;10.084;2022-09-09T13:20:53;19.60;99.90
5154;DHT22;2595;53.584;10.084;2022-09-09T13:23:20;19.60;99.90
5154;DHT22;2595;53.584;10.084;2022-09-09T13:25:59;19.60;99.90
5154;DHT22;2595;53.584;10.084;2022-09-09T13:28:27;19.60;99.90
5154;DHT22;2595;53.584;10.084;2022-09-09T13:31:18;19.50;99.90
5154;DHT22;2595;53.584;10.084;2022-09-09T13:33:45;19.50;99.90
5154;DHT22;2595;53.584;10.084;2022-09-09T13:36:12;19.40;99.90
5154;DHT22;2595;53.584;10.084;2022-09-09T13:41:46;19.30;99.90
5154;DHT22;2595;53.584;10.084;2022-09-09T13:44:26;19.30;99.90
5154;DHT22;2595;53.584;10.084;2022-09-09T13:47:04;19.30;99.90
5154;DHT22;2595;53.584;10.084;2022-09-09T13:49:30;19.20;99.90
5154;DHT22;2595;53.584;10.084;2022-09-09T13:54:37;19.10;99.90
5154;DHT22;2595;53.584;10.084;2022-09-09T13:57:03;19.10;99.90
5154;DHT22;2595;53.584;10.084;2022-09-09T13:59:30;19.00;99.90
5154;DHT22;2595;53.584;10.084;2022-09-09T14:01:55;19.00;99.90
5154;DHT22;2595;53.584;10.084;2022-09-09T14:04:22;18.90;99.90
5154;DHT22;2595;53.584;10.084;2022-09-09T14:06:48;18.90;99.90
5154;DHT22;2595;53.584;10.084;2022-09-09T14:09:16;18.80;99.90
5154;DHT22;2595;53.584;10.084;2022-09-09T14:11:43;18.80;99.90
5154;DHT22;2595;53.584;10.084;2022-09-09T14:14:09;18.80;99.90
5154;DHT22;2595;53.584;10.084;2022-09-09T14:16:35;18.70;99.90
5154;DHT22;2595;53.584;10.084;2022-09-09T14:19:01;18.70;99.90
5154;DHT22;2595;53.584;10.084;2022-09-09T14:21:27;18.70;99.90
5154;DHT22;2595;53.584;10.084;2022-09-09T14:23:53;18.60;99.90
5154;DHT22;2595;53.584;10.084;2022-09-09T14:26:20;18.60;99.90
5154;DHT22;2595;53.584;10.084;2022-09-09T14:28:47;18.60;99.90
5154;DHT22;2595;53.584;10.084;2022-09-09T14:31:12;18.60;99.90
5154;DHT22;2595;53.584;10.084;2022-09-09T14:33:43;18.60;99.90
5154;DHT22;2595;53.584;10.084;2022-09-09T14:36:09;18.60;99.90
5154;DHT22;2595;53.584;10.084;2022-09-09T14:38:37;18.50;99.90
5154;DHT22;2595;53.584;10.084;2022-09-09T14:41:11;18.50;99.90
5154;DHT22;2595;53.584;10.084;2022-09-09T14:43:38;18.50;99.90
5154;DHT22;2595;53.584;10.084;2022-09-09T14:46:09;18.50;99.90
5154;DHT22;2595;53.584;10.084;2022-09-09T14:48:35;18.50;99.90
5154;DHT22;2595;53.584;10.084;2022-09-09T14:51:12;18.50;99.90
5154;DHT22;2595;53.584;10.084;2022-09-09T14:53:39;18.40;99.90
5154;DHT22;2595;53.584;10.084;2022-09-09T14:56:17;18.40;99.90
5154;DHT22;2595;53.584;10.084;2022-09-09T14:58:43;18.40;99.90
5154;DHT22;2595;53.584;10.084;2022-09-09T15:01:17;18.40;99.90
5154;DHT22;2595;53.584;10.084;2022-09-09T15:03:50;18.30;99.90
5154;DHT22;2595;53.584;10.084;2022-09-09T15:06:16;18.30;99.90
5154;DHT22;2595;53.584;10.084;2022-09-09T15:08:44;18.30;99.90
5154;DHT22;2595;53.584;10.084;2022-09-09T15:11:10;18.30;99.90
5154;DHT22;2595;53.584;10.084;2022-09-09T15:13:38;18.20;99.90
5154;DHT22;2595;53.584;10.084;2022-09-09T15:18:32;18.20;99.90
5154;DHT22;2595;53.584;10.084;2022-09-09T15:20:59;18.10;99.90
5154;DHT22;2595;53.584;10.084;2022-09-09T15:23:25;18.10;99.90
5154;DHT22;2595;53.584;10.084;2022-09-09T15:25:54;18.10;99.90
5154;DHT22;2595;53.584;10.084;2022-09-09T15:28:21;18.10;99.90
5154;DHT22;2595;53.584;10.084;2022-09-09T15:30:51;18.00;99.90
5154;DHT22;2595;53.584;10.084;2022-09-09T15:33:20;18.00;99.90
5154;DHT22;2595;53.584;10.084;2022-09-09T15:35:46;18.00;99.90
5154;DHT22;2595;53.584;10.084;2022-09-09T15:38:12;18.00;99.90
5154;DHT22;2595;53.584;10.084;2022-09-09T15:40:39;18.00;99.90
5154;DHT22;2595;53.584;10.084;2022-09-09T15:43:06;18.00;99.90
5154;DHT22;2595;53.584;10.084;2022-09-09T15:45:33;18.00;99.90
5154;DHT22;2595;53.584;10.084;2022-09-09T15:48:00;18.00;99.90
5154;DHT22;2595;53.584;10.084;2022-09-09T15:50:25;17.90;99.90
5154;DHT22;2595;53.584;10.084;2022-09-09T15:52:51;17.90;99.90
5154;DHT22;2595;53.584;10.084;2022-09-09T15:55:18;17.90;99.90
5154;DHT22;2595;53.584;10.084;2022-09-09T15:57:45;18.00;99.90
5154;DHT22;2595;53.584;10.084;2022-09-09T16:00:12;18.00;99.90
5154;DHT22;2595;53.584;10.084;2022-09-09T16:02:38;18.00;99.90
5154;DHT22;2595;53.584;10.084;2022-09-09T16:05:04;18.00;99.90
5154;DHT22;2595;53.584;10.084;2022-09-09T16:07:30;18.00;99.90
5154;DHT22;2595;53.584;10.084;2022-09-09T16:09:56;18.00;99.90
5154;DHT22;2595;53.584;10.084;2022-09-09T16:12:21;18.00;99.90
5154;DHT22;2595;53.584;10.084;2022-09-09T16:14:47;18.00;99.90
5154;DHT22;2595;53.584;10.084;2022-09-09T16:17:12;18.00;99.90
5154;DHT22;2595;53.584;10.084;2022-09-09T16:19:39;18.10;99.90
5154;DHT22;2595;53.584;10.084;2022-09-09T16:22:05;18.10;99.90
5154;DHT22;2595;53.584;10.084;2022-09-09T16:24:31;18.10;99.90
5154;DHT22;2595;53.584;10.084;2022-09-09T16:26:57;18.10;99.90
5154;DHT22;2595;53.584;10.084;2022-09-09T16:29:23;18.10;99.90
5154;DHT22;2595;53.584;10.084;2022-09-09T16:31:53;18.10;99.90
5154;DHT22;2595;53.584;10.084;2022-09-09T16:34:19;18.10;99.90
5154;DHT22;2595;53.584;10.084;2022-09-09T16:36:47;18.10;99.90
5154;DHT22;2595;53.584;10.084;2022-09-09T16:39:15;18.10;99.90
5154;DHT22;2595;53.584;10.084;2022-09-09T16:41:42;18.10;99.90
5154;DHT22;2595;53.584;10.084;2022-09-09T16:44:10;18.10;99.90
5154;DHT22;2595;53.584;10.084;2022-09-09T16:46:38;18.10;99.90
5154;DHT22;2595;53.584;10.084;2022-09-09T16:49:06;18.10;99.90
5154;DHT22;2595;53.584;10.084;2022-09-09T16:51:38;18.10;99.90
5154;DHT22;2595;53.584;10.084;2022-09-09T16:54:05;18.10;99.90
5154;DHT22;2595;53.584;10.084;2022-09-09T16:56:33;18.10;99.90
5154;DHT22;2595;53.584;10.084;2022-09-09T16:59:02;18.10;99.90
5154;DHT22;2595;53.584;10.084;2022-09-09T17:01:31;18.10;99.90
5154;DHT22;2595;53.584;10.084;2022-09-09T17:04:00;18.10;99.90
5154;DHT22;2595;53.584;10.084;2022-09-09T17:06:29;18.10;99.90
5154;DHT22;2595;53.584;10.084;2022-09-09T17:09:00;18.10;99.90
5154;DHT22;2595;53.584;10.084;2022-09-09T17:11:27;18.10;99.90
5154;DHT22;2595;53.584;10.084;2022-09-09T17:13:53;18.10;99.90
5154;DHT22;2595;53.584;10.084;2022-09-09T17:16:20;18.10;99.90
5154;DHT22;2595;53.584;10.084;2022-09-09T17:18:47;18.10;99.90
5154;DHT22;2595;53.584;10.084;2022-09-09T17:21:15;18.10;99.90
5154;DHT22;2595;53.584;10.084;2022-09-09T17:23:42;18.10;99.90
5154;DHT22;2595;53.584;10.084;2022-09-09T17:26:10;18.10;99.90
5154;DHT22;2595;53.584;10.084;2022-09-09T17:28:37;18.00;99.90
5154;DHT22;2595;53.584;10.084;2022-09-09T17:31:08;18.00;99.90
5154;DHT22;2595;53.584;10.084;2022-09-09T17:33:35;18.00;99.90
5154;DHT22;2595;53.584;10.084;2022-09-09T17:36:07;18.00;99.90
5154;DHT22;2595;53.584;10.084;2022-09-09T17:38:33;17.90;99.90
5154;DHT22;2595;53.584;10.084;2022-09-09T17:41:07;17.90;99.90
5154;DHT22;2595;53.584;10.084;2022-09-09T17:43:33;17.90;99.90
5154;DHT22;2595;53.584;10.084;2022-09-09T17:46:17;17.90;99.90
5154;DHT22;2595;53.584;10.084;2022-09-09T17:48:45;17.90;99.90
5154;DHT22;2595;53.584;10.084;2022-09-09T17:51:17;17.80;99.90
5154;DHT22;2595;53.584;10.084;2022-09-09T17:53:46;17.80;99.90
5154;DHT22;2595;53.584;10.084;2022-09-09T17:56:16;17.80;99.90
5154;DHT22;2595;53.584;10.084;2022-09-09T17:58:43;17.70;99.90
5154;DHT22;2595;53.584;10.084;2022-09-09T18:01:15;17.70;99.90
5154;DHT22;2595;53.584;10.084;2022-09-09T18:03:42;17.60;99.90
5154;DHT22;2595;53.584;10.084;2022-09-09T18:06:10;17.60;99.90
5154;DHT22;2595;53.584;10.084;2022-09-09T18:08:38;17.60;99.90
5154;DHT22;2595;53.584;10.084;2022-09-09T18:11:05;17.60;99.90